sensor_id;sensor_type;location;lat;lon;timestamp;P1;durP1;ratioP1;P2;durP2;ratioP2
60318;SDS011;46163;52.306;5.634;2023-04-26T00:01:19;1.83;;;1.65;;
60318;SDS011;46163;52.306;5.634;2023-04-26T00:03:46;1.73;;;1.50;;
60318;SDS011;46163;52.306;5.634;2023-04-26T00:06:11;1.58;;;1.42;;
60318;SDS011;46163;52.306;5.634;2023-04-26T00:08:38;1.80;;;1.70;;
60318;SDS011;46163;52.306;5.634;2023-04-26T00:11:04;2.50;;;1.42;;
60318;SDS011;46163;52.306;5.634;2023-04-26T00:13:30;1.98;;;1.60;;
60318;SDS011;46163;52.306;5.634;2023-04-26T00:15:55;1.40;;;1.30;;
60318;SDS011;46163;52.306;5.634;2023-04-26T00:18:21;2.10;;;1.52;;
60318;SDS011;46163;52.306;5.634;2023-04-26T00:20:46;1.60;;;1.50;;
60318;SDS011;46163;52.306;5.634;2023-04-26T00:23:12;1.50;;;1.40;;
60318;SDS011;46163;52.306;5.634;2023-04-26T00:25:37;1.95;;;1.60;;
60318;SDS011;46163;52.306;5.634;2023-04-26T00:28:03;1.88;;;1.50;;
60318;SDS011;46163;52.306;5.634;2023-04-26T00:30:29;2.50;;;1.52;;
60318;SDS011;46163;52.306;5.634;2023-04-26T00:32:54;1.60;;;1.50;;
60318;SDS011;46163;52.306;5.634;2023-04-26T00:35:20;1.67;;;1.55;;
60318;SDS011;46163;52.306;5.634;2023-04-26T00:37:46;2.35;;;1.60;;
60318;SDS011;46163;52.306;5.634;2023-04-26T00:40:16;1.92;;;1.73;;
60318;SDS011;46163;52.306;5.634;2023-04-26T00:42:41;1.50;;;1.40;;
60318;SDS011;46163;52.306;5.634;2023-04-26T00:45:07;2.42;;;1.60;;
60318;SDS011;46163;52.306;5.634;2023-04-26T00:47:33;1.65;;;1.40;;
60318;SDS011;46163;52.306;5.634;2023-04-26T00:49:59;2.25;;;1.50;;
60318;SDS011;46163;52.306;5.634;2023-04-26T00:52:26;1.52;;;1.40;;
60318;SDS011;46163;52.306;5.634;2023-04-26T00:54:52;1.77;;;1.60;;
60318;SDS011;46163;52.306;5.634;2023-04-26T00:57:19;1.65;;;1.52;;
60318;SDS011;46163;52.306;5.634;2023-04-26T00:59:45;1.50;;;1.40;;
60318;SDS011;46163;52.306;5.634;2023-04-26T01:02:11;1.88;;;1.60;;
60318;SDS011;46163;52.306;5.634;2023-04-26T01:04:37;1.77;;;1.60;;
60318;SDS011;46163;52.306;5.634;2023-04-26T01:07:04;1.50;;;1.40;;
60318;SDS011;46163;52.306;5.634;2023-04-26T01:09:30;1.40;;;1.30;;
60318;SDS011;46163;52.306;5.634;2023-04-26T01:11:56;1.75;;;1.50;;
60318;SDS011;46163;52.306;5.634;2023-04-26T01:14:22;1.35;;;1.25;;
60318;SDS011;46163;52.306;5.634;2023-04-26T01:16:49;1.50;;;1.40;;
60318;SDS011;46163;52.306;5.634;2023-04-26T01:19:16;1.77;;;1.38;;
60318;SDS011;46163;52.306;5.634;2023-04-26T01:21:42;1.85;;;1.55;;
60318;SDS011;46163;52.306;5.634;2023-04-26T01:24:09;1.42;;;1.33;;
60318;SDS011;46163;52.306;5.634;2023-04-26T01:26:35;1.60;;;1.50;;
60318;SDS011;46163;52.306;5.634;2023-04-26T01:29:14;1.92;;;1.38;;
60318;SDS011;46163;52.306;5.634;2023-04-26T01:31:40;1.92;;;1.40;;
60318;SDS011;46163;52.306;5.634;2023-04-26T01:34:06;1.40;;;1.30;;
60318;SDS011;46163;52.306;5.634;2023-04-26T01:36:31;1.75;;;1.30;;
60318;SDS011;46163;52.306;5.634;2023-04-26T01:38:56;1.33;;;1.23;;
60318;SDS011;46163;52.306;5.634;2023-04-26T01:41:22;1.60;;;1.45;;
60318;SDS011;46163;52.306;5.634;2023-04-26T01:43:48;1.23;;;1.20;;
60318;SDS011;46163;52.306;5.634;2023-04-26T01:46:14;1.40;;;1.30;;
60318;SDS011;46163;52.306;5.634;2023-04-26T01:48:40;1.38;;;1.30;;
60318;SDS011;46163;52.306;5.634;2023-04-26T01:51:05;1.80;;;1.40;;
60318;SDS011;46163;52.306;5.634;2023-04-26T01:53:31;1.10;;;1.10;;
60318;SDS011;46163;52.306;5.634;2023-04-26T01:55:59;1.52;;;1.40;;
60318;SDS011;46163;52.306;5.634;2023-04-26T01:58:26;1.40;;;1.30;;
60318;SDS011;46163;52.306;5.634;2023-04-26T02:00:52;1.20;;;1.20;;
60318;SDS011;46163;52.306;5.634;2023-04-26T02:03:17;1.42;;;1.33;;
60318;SDS011;46163;52.306;5.634;2023-04-26T02:05:43;1.52;;;1.42;;
60318;SDS011;46163;52.306;5.634;2023-04-26T02:08:08;1.40;;;1.30;;
60318;SDS011;46163;52.306;5.634;2023-04-26T02:10:34;1.48;;;1.38;;
60318;SDS011;46163;52.306;5.634;2023-04-26T02:12:59;1.50;;;1.40;;
60318;SDS011;46163;52.306;5.634;2023-04-26T02:15:25;1.48;;;1.38;;
60318;SDS011;46163;52.306;5.634;2023-04-26T02:17:50;1.30;;;1.30;;
60318;SDS011;46163;52.306;5.634;2023-04-26T02:20:17;1.90;;;1.40;;
60318;SDS011;46163;52.306;5.634;2023-04-26T02:22:43;1.20;;;1.20;;
60318;SDS011;46163;52.306;5.634;2023-04-26T02:25:09;1.48;;;1.38;;
60318;SDS011;46163;52.306;5.634;2023-04-26T02:27:35;1.45;;;1.35;;
60318;SDS011;46163;52.306;5.634;2023-04-26T02:30:01;1.63;;;1.38;;
60318;SDS011;46163;52.306;5.634;2023-04-26T02:32:27;1.50;;;1.40;;
60318;SDS011;46163;52.306;5.634;2023-04-26T02:34:53;1.50;;;1.40;;
60318;SDS011;46163;52.306;5.634;2023-04-26T02:37:18;1.65;;;1.50;;
60318;SDS011;46163;52.306;5.634;2023-04-26T02:39:48;1.52;;;1.38;;
60318;SDS011;46163;52.306;5.634;2023-04-26T02:42:15;1.42;;;1.35;;
60318;SDS011;46163;52.306;5.634;2023-04-26T02:44:41;1.17;;;1.17;;
60318;SDS011;46163;52.306;5.634;2023-04-26T02:47:07;1.50;;;1.40;;
60318;SDS011;46163;52.306;5.634;2023-04-26T02:49:33;1.58;;;1.20;;
60318;SDS011;46163;52.306;5.634;2023-04-26T02:51:59;1.48;;;1.38;;
60318;SDS011;46163;52.306;5.634;2023-04-26T02:54:24;1.30;;;1.30;;
60318;SDS011;46163;52.306;5.634;2023-04-26T02:56:50;1.40;;;1.30;;
60318;SDS011;46163;52.306;5.634;2023-04-26T02:59:16;1.42;;;1.33;;
60318;SDS011;46163;52.306;5.634;2023-04-26T03:01:41;1.63;;;1.50;;
60318;SDS011;46163;52.306;5.634;2023-04-26T03:04:07;2.10;;;1.88;;
60318;SDS011;46163;52.306;5.634;2023-04-26T03:06:35;1.40;;;1.30;;
60318;SDS011;46163;52.306;5.634;2023-04-26T03:09:00;1.52;;;1.42;;
60318;SDS011;46163;52.306;5.634;2023-04-26T03:11:26;1.13;;;1.13;;
60318;SDS011;46163;52.306;5.634;2023-04-26T03:13:51;1.88;;;1.33;;
60318;SDS011;46163;52.306;5.634;2023-04-26T03:16:21;1.30;;;1.20;;
60318;SDS011;46163;52.306;5.634;2023-04-26T03:18:47;1.20;;;1.20;;
60318;SDS011;46163;52.306;5.634;2023-04-26T03:21:12;1.40;;;1.30;;
60318;SDS011;46163;52.306;5.634;2023-04-26T03:23:38;1.40;;;1.30;;
60318;SDS011;46163;52.306;5.634;2023-04-26T03:26:03;1.15;;;1.15;;
60318;SDS011;46163;52.306;5.634;2023-04-26T03:28:29;1.40;;;1.30;;
60318;SDS011;46163;52.306;5.634;2023-04-26T03:30:55;1.60;;;1.40;;
60318;SDS011;46163;52.306;5.634;2023-04-26T03:33:20;1.40;;;1.30;;
60318;SDS011;46163;52.306;5.634;2023-04-26T03:35:45;1.20;;;1.10;;
60318;SDS011;46163;52.306;5.634;2023-04-26T03:38:11;1.55;;;1.30;;
60318;SDS011;46163;52.306;5.634;2023-04-26T03:40:37;1.15;;;1.15;;
60318;SDS011;46163;52.306;5.634;2023-04-26T03:43:02;1.20;;;1.20;;
60318;SDS011;46163;52.306;5.634;2023-04-26T03:45:30;1.98;;;1.25;;
60318;SDS011;46163;52.306;5.634;2023-04-26T03:47:56;1.30;;;1.20;;
60318;SDS011;46163;52.306;5.634;2023-04-26T03:50:21;1.10;;;1.10;;
60318;SDS011;46163;52.306;5.634;2023-04-26T03:52:46;1.20;;;1.10;;
60318;SDS011;46163;52.306;5.634;2023-04-26T03:55:12;1.50;;;1.40;;
60318;SDS011;46163;52.306;5.634;2023-04-26T03:57:38;1.35;;;1.17;;
60318;SDS011;46163;52.306;5.634;2023-04-26T04:00:03;1.15;;;1.05;;
60318;SDS011;46163;52.306;5.634;2023-04-26T04:02:39;1.10;;;1.10;;
60318;SDS011;46163;52.306;5.634;2023-04-26T04:05:05;1.63;;;1.30;;
60318;SDS011;46163;52.306;5.634;2023-04-26T04:07:32;1.10;;;1.10;;
60318;SDS011;46163;52.306;5.634;2023-04-26T04:10:00;1.20;;;1.10;;
60318;SDS011;46163;52.306;5.634;2023-04-26T04:12:26;1.50;;;1.30;;
60318;SDS011;46163;52.306;5.634;2023-04-26T04:14:51;1.30;;;1.20;;
60318;SDS011;46163;52.306;5.634;2023-04-26T04:17:17;1.20;;;1.10;;
60318;SDS011;46163;52.306;5.634;2023-04-26T04:19:43;1.30;;;1.20;;
60318;SDS011;46163;52.306;5.634;2023-04-26T04:22:12;1.40;;;1.30;;
60318;SDS011;46163;52.306;5.634;2023-04-26T04:24:37;1.00;;;1.00;;
60318;SDS011;46163;52.306;5.634;2023-04-26T04:27:03;1.30;;;1.30;;
60318;SDS011;46163;52.306;5.634;2023-04-26T04:29:28;1.08;;;1.08;;
60318;SDS011;46163;52.306;5.634;2023-04-26T04:31:55;1.65;;;1.30;;
60318;SDS011;46163;52.306;5.634;2023-04-26T04:34:20;1.20;;;1.10;;
60318;SDS011;46163;52.306;5.634;2023-04-26T04:36:47;1.40;;;1.17;;
60318;SDS011;46163;52.306;5.634;2023-04-26T04:39:14;1.30;;;1.20;;
60318;SDS011;46163;52.306;5.634;2023-04-26T04:41:41;1.13;;;1.10;;
60318;SDS011;46163;52.306;5.634;2023-04-26T04:44:16;1.75;;;1.17;;
60318;SDS011;46163;52.306;5.634;2023-04-26T04:46:42;1.05;;;1.05;;
60318;SDS011;46163;52.306;5.634;2023-04-26T04:49:09;1.30;;;1.20;;
60318;SDS011;46163;52.306;5.634;2023-04-26T04:51:36;1.50;;;1.40;;
60318;SDS011;46163;52.306;5.634;2023-04-26T04:54:12;1.08;;;1.08;;
60318;SDS011;46163;52.306;5.634;2023-04-26T04:56:38;1.30;;;1.20;;
60318;SDS011;46163;52.306;5.634;2023-04-26T04:59:04;1.33;;;1.23;;
60318;SDS011;46163;52.306;5.634;2023-04-26T05:01:30;1.17;;;1.17;;
60318;SDS011;46163;52.306;5.634;2023-04-26T05:03:59;1.33;;;1.17;;
60318;SDS011;46163;52.306;5.634;2023-04-26T05:06:25;2.35;;;1.23;;
60318;SDS011;46163;52.306;5.634;2023-04-26T05:08:51;1.40;;;1.30;;
60318;SDS011;46163;52.306;5.634;2023-04-26T05:11:18;1.23;;;1.13;;
60318;SDS011;46163;52.306;5.634;2023-04-26T05:13:43;1.08;;;1.05;;
60318;SDS011;46163;52.306;5.634;2023-04-26T05:16:10;1.20;;;1.10;;
60318;SDS011;46163;52.306;5.634;2023-04-26T05:18:38;1.40;;;1.20;;
60318;SDS011;46163;52.306;5.634;2023-04-26T05:21:04;2.53;;;1.33;;
60318;SDS011;46163;52.306;5.634;2023-04-26T05:23:29;1.77;;;1.27;;
60318;SDS011;46163;52.306;5.634;2023-04-26T05:25:55;1.75;;;1.02;;
60318;SDS011;46163;52.306;5.634;2023-04-26T05:28:21;1.10;;;1.10;;
60318;SDS011;46163;52.306;5.634;2023-04-26T05:30:47;1.17;;;1.17;;
60318;SDS011;46163;52.306;5.634;2023-04-26T05:33:13;1.00;;;1.00;;
60318;SDS011;46163;52.306;5.634;2023-04-26T05:35:39;1.20;;;1.20;;
60318;SDS011;46163;52.306;5.634;2023-04-26T05:38:05;1.20;;;1.10;;
60318;SDS011;46163;52.306;5.634;2023-04-26T05:40:30;1.15;;;1.05;;
60318;SDS011;46163;52.306;5.634;2023-04-26T05:42:56;2.45;;;1.23;;
60318;SDS011;46163;52.306;5.634;2023-04-26T05:45:21;1.50;;;1.40;;
60318;SDS011;46163;52.306;5.634;2023-04-26T05:47:47;1.10;;;1.10;;
60318;SDS011;46163;52.306;5.634;2023-04-26T05:50:13;1.30;;;1.25;;
60318;SDS011;46163;52.306;5.634;2023-04-26T05:52:38;1.13;;;1.02;;
60318;SDS011;46163;52.306;5.634;2023-04-26T05:55:05;1.30;;;1.20;;
60318;SDS011;46163;52.306;5.634;2023-04-26T05:57:30;1.25;;;1.15;;
60318;SDS011;46163;52.306;5.634;2023-04-26T05:59:56;1.10;;;1.10;;
60318;SDS011;46163;52.306;5.634;2023-04-26T06:02:21;2.67;;;1.33;;
60318;SDS011;46163;52.306;5.634;2023-04-26T06:04:47;1.27;;;1.17;;
60318;SDS011;46163;52.306;5.634;2023-04-26T06:07:12;1.38;;;1.10;;
60318;SDS011;46163;52.306;5.634;2023-04-26T06:09:38;3.40;;;1.27;;
60318;SDS011;46163;52.306;5.634;2023-04-26T06:12:04;4.43;;;1.20;;
60318;SDS011;46163;52.306;5.634;2023-04-26T06:14:29;2.08;;;1.02;;
60318;SDS011;46163;52.306;5.634;2023-04-26T06:16:55;1.30;;;1.30;;
60318;SDS011;46163;52.306;5.634;2023-04-26T06:19:21;1.95;;;1.63;;
60318;SDS011;46163;52.306;5.634;2023-04-26T06:21:47;1.10;;;1.00;;
60318;SDS011;46163;52.306;5.634;2023-04-26T06:24:13;1.23;;;1.23;;
60318;SDS011;46163;52.306;5.634;2023-04-26T06:26:39;1.48;;;1.20;;
60318;SDS011;46163;52.306;5.634;2023-04-26T06:29:05;1.23;;;1.13;;
60318;SDS011;46163;52.306;5.634;2023-04-26T06:31:30;1.40;;;1.30;;
60318;SDS011;46163;52.306;5.634;2023-04-26T06:33:56;0.98;;;0.98;;
60318;SDS011;46163;52.306;5.634;2023-04-26T06:36:22;2.72;;;1.33;;
60318;SDS011;46163;52.306;5.634;2023-04-26T06:38:47;2.13;;;1.25;;
60318;SDS011;46163;52.306;5.634;2023-04-26T06:41:13;1.20;;;1.20;;
60318;SDS011;46163;52.306;5.634;2023-04-26T06:43:38;1.58;;;1.00;;
60318;SDS011;46163;52.306;5.634;2023-04-26T06:46:04;1.10;;;1.10;;
60318;SDS011;46163;52.306;5.634;2023-04-26T06:48:30;1.10;;;1.10;;
60318;SDS011;46163;52.306;5.634;2023-04-26T06:50:55;1.08;;;1.02;;
60318;SDS011;46163;52.306;5.634;2023-04-26T06:53:21;2.92;;;1.40;;
60318;SDS011;46163;52.306;5.634;2023-04-26T06:55:46;1.45;;;1.30;;
60318;SDS011;46163;52.306;5.634;2023-04-26T06:58:12;1.13;;;1.10;;
60318;SDS011;46163;52.306;5.634;2023-04-26T07:00:37;1.00;;;1.00;;
60318;SDS011;46163;52.306;5.634;2023-04-26T07:03:03;1.10;;;1.10;;
60318;SDS011;46163;52.306;5.634;2023-04-26T07:05:28;1.27;;;1.17;;
60318;SDS011;46163;52.306;5.634;2023-04-26T07:07:54;1.88;;;1.10;;
60318;SDS011;46163;52.306;5.634;2023-04-26T07:10:22;1.55;;;1.27;;
60318;SDS011;46163;52.306;5.634;2023-04-26T07:12:47;1.85;;;1.30;;
60318;SDS011;46163;52.306;5.634;2023-04-26T07:15:13;1.38;;;1.25;;
60318;SDS011;46163;52.306;5.634;2023-04-26T07:17:39;3.97;;;1.20;;
60318;SDS011;46163;52.306;5.634;2023-04-26T07:20:04;1.25;;;1.15;;
60318;SDS011;46163;52.306;5.634;2023-04-26T07:22:31;0.90;;;0.90;;
60318;SDS011;46163;52.306;5.634;2023-04-26T07:24:56;4.22;;;1.33;;
60318;SDS011;46163;52.306;5.634;2023-04-26T07:27:21;2.05;;;1.20;;
60318;SDS011;46163;52.306;5.634;2023-04-26T07:29:47;1.40;;;1.30;;
60318;SDS011;46163;52.306;5.634;2023-04-26T07:32:12;1.50;;;1.40;;
60318;SDS011;46163;52.306;5.634;2023-04-26T07:34:38;1.13;;;1.10;;
60318;SDS011;46163;52.306;5.634;2023-04-26T07:37:05;1.00;;;1.00;;
60318;SDS011;46163;52.306;5.634;2023-04-26T07:39:31;1.40;;;1.30;;
60318;SDS011;46163;52.306;5.634;2023-04-26T07:41:56;1.85;;;1.15;;
60318;SDS011;46163;52.306;5.634;2023-04-26T07:44:22;1.48;;;1.30;;
60318;SDS011;46163;52.306;5.634;2023-04-26T07:46:47;1.35;;;1.27;;
60318;SDS011;46163;52.306;5.634;2023-04-26T07:49:12;1.20;;;1.15;;
60318;SDS011;46163;52.306;5.634;2023-04-26T07:51:38;1.38;;;1.20;;
60318;SDS011;46163;52.306;5.634;2023-04-26T07:54:05;1.88;;;1.30;;
60318;SDS011;46163;52.306;5.634;2023-04-26T07:56:31;1.20;;;1.10;;
60318;SDS011;46163;52.306;5.634;2023-04-26T07:58:56;1.40;;;1.30;;
60318;SDS011;46163;52.306;5.634;2023-04-26T08:01:22;1.08;;;1.08;;
60318;SDS011;46163;52.306;5.634;2023-04-26T08:03:47;1.52;;;1.02;;
60318;SDS011;46163;52.306;5.634;2023-04-26T08:06:13;1.55;;;1.20;;
60318;SDS011;46163;52.306;5.634;2023-04-26T08:08:38;1.50;;;1.30;;
60318;SDS011;46163;52.306;5.634;2023-04-26T08:11:08;1.40;;;1.30;;
60318;SDS011;46163;52.306;5.634;2023-04-26T08:13:35;1.27;;;1.17;;
60318;SDS011;46163;52.306;5.634;2023-04-26T08:16:01;2.42;;;1.15;;
60318;SDS011;46163;52.306;5.634;2023-04-26T08:18:26;1.40;;;1.30;;
60318;SDS011;46163;52.306;5.634;2023-04-26T08:20:52;1.88;;;1.27;;
60318;SDS011;46163;52.306;5.634;2023-04-26T08:23:19;1.10;;;1.00;;
60318;SDS011;46163;52.306;5.634;2023-04-26T08:25:46;4.43;;;1.35;;
60318;SDS011;46163;52.306;5.634;2023-04-26T08:28:13;2.33;;;1.00;;
60318;SDS011;46163;52.306;5.634;2023-04-26T08:30:40;1.63;;;1.20;;
60318;SDS011;46163;52.306;5.634;2023-04-26T08:33:05;0.90;;;0.90;;
60318;SDS011;46163;52.306;5.634;2023-04-26T08:35:31;1.25;;;1.15;;
60318;SDS011;46163;52.306;5.634;2023-04-26T08:37:56;1.88;;;1.20;;
60318;SDS011;46163;52.306;5.634;2023-04-26T08:40:22;1.27;;;1.00;;
60318;SDS011;46163;52.306;5.634;2023-04-26T08:42:53;1.15;;;1.10;;
60318;SDS011;46163;52.306;5.634;2023-04-26T08:45:20;4.47;;;1.40;;
60318;SDS011;46163;52.306;5.634;2023-04-26T08:47:49;1.23;;;1.10;;
60318;SDS011;46163;52.306;5.634;2023-04-26T08:50:21;1.75;;;1.30;;
60318;SDS011;46163;52.306;5.634;2023-04-26T08:52:47;1.20;;;1.10;;
60318;SDS011;46163;52.306;5.634;2023-04-26T08:55:15;1.08;;;1.00;;
60318;SDS011;46163;52.306;5.634;2023-04-26T08:57:41;3.83;;;1.35;;
60318;SDS011;46163;52.306;5.634;2023-04-26T09:00:11;1.10;;;1.00;;
60318;SDS011;46163;52.306;5.634;2023-04-26T09:02:41;2.35;;;1.08;;
60318;SDS011;46163;52.306;5.634;2023-04-26T09:05:11;1.15;;;1.10;;
60318;SDS011;46163;52.306;5.634;2023-04-26T09:07:43;1.30;;;1.20;;
60318;SDS011;46163;52.306;5.634;2023-04-26T09:10:10;1.10;;;1.10;;
60318;SDS011;46163;52.306;5.634;2023-04-26T09:12:37;1.85;;;1.20;;
60318;SDS011;46163;52.306;5.634;2023-04-26T09:15:03;2.33;;;1.17;;
60318;SDS011;46163;52.306;5.634;2023-04-26T09:17:38;3.55;;;1.50;;
60318;SDS011;46163;52.306;5.634;2023-04-26T09:23:03;1.02;;;1.02;;
60318;SDS011;46163;52.306;5.634;2023-04-26T09:25:31;1.15;;;1.10;;
60318;SDS011;46163;52.306;5.634;2023-04-26T09:27:57;1.10;;;1.00;;
60318;SDS011;46163;52.306;5.634;2023-04-26T09:30:24;0.82;;;0.82;;
60318;SDS011;46163;52.306;5.634;2023-04-26T09:32:58;1.42;;;1.30;;
60318;SDS011;46163;52.306;5.634;2023-04-26T09:35:34;1.00;;;1.00;;
60318;SDS011;46163;52.306;5.634;2023-04-26T09:38:07;2.00;;;1.25;;
60318;SDS011;46163;52.306;5.634;2023-04-26T09:40:39;0.85;;;0.85;;
60318;SDS011;46163;52.306;5.634;2023-04-26T09:43:13;1.23;;;1.13;;
60318;SDS011;46163;52.306;5.634;2023-04-26T09:50:44;1.05;;;1.05;;
60318;SDS011;46163;52.306;5.634;2023-04-26T09:53:10;0.90;;;0.90;;
60318;SDS011;46163;52.306;5.634;2023-04-26T09:55:48;2.38;;;1.15;;
60318;SDS011;46163;52.306;5.634;2023-04-26T09:58:14;0.73;;;0.73;;
60318;SDS011;46163;52.306;5.634;2023-04-26T10:00:40;1.20;;;1.10;;
60318;SDS011;46163;52.306;5.634;2023-04-26T10:03:07;2.10;;;1.20;;
60318;SDS011;46163;52.306;5.634;2023-04-26T10:05:34;1.30;;;1.20;;
60318;SDS011;46163;52.306;5.634;2023-04-26T10:08:02;1.13;;;1.05;;
60318;SDS011;46163;52.306;5.634;2023-04-26T10:10:30;1.17;;;1.10;;
60318;SDS011;46163;52.306;5.634;2023-04-26T10:12:55;1.20;;;1.10;;
60318;SDS011;46163;52.306;5.634;2023-04-26T10:15:21;1.15;;;1.00;;
60318;SDS011;46163;52.306;5.634;2023-04-26T10:17:47;1.33;;;1.17;;
60318;SDS011;46163;52.306;5.634;2023-04-26T10:20:12;1.33;;;1.15;;
60318;SDS011;46163;52.306;5.634;2023-04-26T10:22:45;1.08;;;1.08;;
60318;SDS011;46163;52.306;5.634;2023-04-26T10:25:46;1.00;;;1.00;;
60318;SDS011;46163;52.306;5.634;2023-04-26T10:28:11;1.08;;;1.05;;
60318;SDS011;46163;52.306;5.634;2023-04-26T10:33:22;2.65;;;1.20;;
60318;SDS011;46163;52.306;5.634;2023-04-26T10:38:36;0.98;;;0.98;;
60318;SDS011;46163;52.306;5.634;2023-04-26T10:47:04;3.60;;;2.70;;
60318;SDS011;46163;52.306;5.634;2023-04-26T10:49:33;5.60;;;2.72;;
60318;SDS011;46163;52.306;5.634;2023-04-26T10:52:10;4.93;;;2.83;;
60318;SDS011;46163;52.306;5.634;2023-04-26T10:54:44;2.67;;;2.25;;
60318;SDS011;46163;52.306;5.634;2023-04-26T10:57:09;2.33;;;2.13;;
60318;SDS011;46163;52.306;5.634;2023-04-26T10:59:35;3.85;;;2.28;;
60318;SDS011;46163;52.306;5.634;2023-04-26T11:02:00;3.67;;;1.85;;
60318;SDS011;46163;52.306;5.634;2023-04-26T11:04:49;2.67;;;1.90;;
60318;SDS011;46163;52.306;5.634;2023-04-26T11:07:14;2.60;;;2.10;;
60318;SDS011;46163;52.306;5.634;2023-04-26T11:09:40;2.42;;;1.90;;
60318;SDS011;46163;52.306;5.634;2023-04-26T11:12:13;1.98;;;1.77;;
60318;SDS011;46163;52.306;5.634;2023-04-26T11:14:40;3.88;;;2.03;;
60318;SDS011;46163;52.306;5.634;2023-04-26T11:17:06;4.15;;;1.92;;
60318;SDS011;46163;52.306;5.634;2023-04-26T11:19:33;1.77;;;1.55;;
60318;SDS011;46163;52.306;5.634;2023-04-26T11:21:59;2.38;;;1.90;;
60318;SDS011;46163;52.306;5.634;2023-04-26T11:24:26;2.28;;;1.70;;
60318;SDS011;46163;52.306;5.634;2023-04-26T11:29:19;1.90;;;1.60;;
60318;SDS011;46163;52.306;5.634;2023-04-26T11:34:19;1.80;;;1.60;;
60318;SDS011;46163;52.306;5.634;2023-04-26T11:36:46;2.50;;;1.70;;
60318;SDS011;46163;52.306;5.634;2023-04-26T11:39:12;2.53;;;1.40;;
60318;SDS011;46163;52.306;5.634;2023-04-26T11:41:41;1.80;;;1.70;;
60318;SDS011;46163;52.306;5.634;2023-04-26T11:44:07;2.10;;;1.88;;
60318;SDS011;46163;52.306;5.634;2023-04-26T11:46:42;2.38;;;1.70;;
60318;SDS011;46163;52.306;5.634;2023-04-26T11:49:10;1.77;;;1.40;;
60318;SDS011;46163;52.306;5.634;2023-04-26T11:51:36;1.70;;;1.50;;
60318;SDS011;46163;52.306;5.634;2023-04-26T11:54:02;1.65;;;1.55;;
60318;SDS011;46163;52.306;5.634;2023-04-26T11:56:28;2.42;;;1.80;;
60318;SDS011;46163;52.306;5.634;2023-04-26T11:58:53;2.72;;;1.90;;
60318;SDS011;46163;52.306;5.634;2023-04-26T12:01:22;1.80;;;1.70;;
60318;SDS011;46163;52.306;5.634;2023-04-26T12:03:52;3.58;;;1.98;;
60318;SDS011;46163;52.306;5.634;2023-04-26T12:06:19;2.45;;;1.70;;
60318;SDS011;46163;52.306;5.634;2023-04-26T12:08:53;1.75;;;1.45;;
60318;SDS011;46163;52.306;5.634;2023-04-26T12:11:20;2.33;;;1.65;;
60318;SDS011;46163;52.306;5.634;2023-04-26T12:13:45;2.40;;;1.92;;
60318;SDS011;46163;52.306;5.634;2023-04-26T12:16:11;3.53;;;1.75;;
60318;SDS011;46163;52.306;5.634;2023-04-26T12:18:38;3.15;;;1.80;;
60318;SDS011;46163;52.306;5.634;2023-04-26T12:21:05;2.70;;;1.52;;
60318;SDS011;46163;52.306;5.634;2023-04-26T12:23:38;2.58;;;1.77;;
60318;SDS011;46163;52.306;5.634;2023-04-26T12:26:05;1.98;;;1.50;;
60318;SDS011;46163;52.306;5.634;2023-04-26T12:28:31;3.53;;;1.67;;
60318;SDS011;46163;52.306;5.634;2023-04-26T12:30:57;2.17;;;1.67;;
60318;SDS011;46163;52.306;5.634;2023-04-26T12:33:24;2.53;;;1.60;;
60318;SDS011;46163;52.306;5.634;2023-04-26T12:35:50;2.08;;;1.60;;
60318;SDS011;46163;52.306;5.634;2023-04-26T12:38:16;3.00;;;1.77;;
60318;SDS011;46163;52.306;5.634;2023-04-26T12:40:42;3.05;;;1.60;;
60318;SDS011;46163;52.306;5.634;2023-04-26T12:43:08;5.70;;;1.77;;
60318;SDS011;46163;52.306;5.634;2023-04-26T12:45:34;2.92;;;1.58;;
60318;SDS011;46163;52.306;5.634;2023-04-26T12:47:59;2.42;;;1.45;;
60318;SDS011;46163;52.306;5.634;2023-04-26T12:50:25;1.80;;;1.52;;
60318;SDS011;46163;52.306;5.634;2023-04-26T12:52:51;2.78;;;1.60;;
60318;SDS011;46163;52.306;5.634;2023-04-26T12:55:16;1.58;;;1.48;;
60318;SDS011;46163;52.306;5.634;2023-04-26T12:57:43;1.60;;;1.50;;
60318;SDS011;46163;52.306;5.634;2023-04-26T13:00:09;2.47;;;1.70;;
60318;SDS011;46163;52.306;5.634;2023-04-26T13:02:37;1.75;;;1.60;;
60318;SDS011;46163;52.306;5.634;2023-04-26T13:05:02;1.92;;;1.58;;
60318;SDS011;46163;52.306;5.634;2023-04-26T13:07:30;2.47;;;1.50;;
60318;SDS011;46163;52.306;5.634;2023-04-26T13:09:56;2.90;;;1.73;;
60318;SDS011;46163;52.306;5.634;2023-04-26T13:12:22;1.65;;;1.55;;
60318;SDS011;46163;52.306;5.634;2023-04-26T13:14:48;1.52;;;1.42;;
60318;SDS011;46163;52.306;5.634;2023-04-26T13:17:13;1.55;;;1.45;;
60318;SDS011;46163;52.306;5.634;2023-04-26T13:19:39;2.13;;;1.40;;
60318;SDS011;46163;52.306;5.634;2023-04-26T13:22:05;1.98;;;1.75;;
60318;SDS011;46163;52.306;5.634;2023-04-26T13:24:32;2.23;;;1.60;;
60318;SDS011;46163;52.306;5.634;2023-04-26T13:26:59;1.88;;;1.30;;
60318;SDS011;46163;52.306;5.634;2023-04-26T13:29:24;1.52;;;1.40;;
60318;SDS011;46163;52.306;5.634;2023-04-26T13:31:50;2.15;;;1.55;;
60318;SDS011;46163;52.306;5.634;2023-04-26T13:34:15;1.83;;;1.60;;
60318;SDS011;46163;52.306;5.634;2023-04-26T13:36:41;2.50;;;1.40;;
60318;SDS011;46163;52.306;5.634;2023-04-26T13:39:06;2.58;;;1.48;;
60318;SDS011;46163;52.306;5.634;2023-04-26T13:41:33;2.20;;;1.50;;
60318;SDS011;46163;52.306;5.634;2023-04-26T13:44:02;1.50;;;1.40;;
60318;SDS011;46163;52.306;5.634;2023-04-26T13:46:29;1.63;;;1.30;;
60318;SDS011;46163;52.306;5.634;2023-04-26T13:48:55;1.67;;;1.50;;
60318;SDS011;46163;52.306;5.634;2023-04-26T13:51:21;1.92;;;1.58;;
60318;SDS011;46163;52.306;5.634;2023-04-26T13:53:49;2.70;;;1.40;;
60318;SDS011;46163;52.306;5.634;2023-04-26T13:56:15;1.30;;;1.20;;
60318;SDS011;46163;52.306;5.634;2023-04-26T13:58:41;1.52;;;1.35;;
60318;SDS011;46163;52.306;5.634;2023-04-26T14:01:08;1.70;;;1.60;;
60318;SDS011;46163;52.306;5.634;2023-04-26T14:03:33;1.92;;;1.60;;
60318;SDS011;46163;52.306;5.634;2023-04-26T14:05:59;3.97;;;1.40;;
60318;SDS011;46163;52.306;5.634;2023-04-26T14:08:26;2.80;;;1.48;;
60318;SDS011;46163;52.306;5.634;2023-04-26T14:10:52;1.45;;;1.30;;
60318;SDS011;46163;52.306;5.634;2023-04-26T14:13:20;1.65;;;1.48;;
60318;SDS011;46163;52.306;5.634;2023-04-26T14:15:45;1.55;;;1.13;;
60318;SDS011;46163;52.306;5.634;2023-04-26T14:18:11;1.40;;;1.30;;
60318;SDS011;46163;52.306;5.634;2023-04-26T14:20:37;1.50;;;1.25;;
60318;SDS011;46163;52.306;5.634;2023-04-26T14:23:02;1.58;;;1.48;;
60318;SDS011;46163;52.306;5.634;2023-04-26T14:25:28;2.55;;;1.58;;
60318;SDS011;46163;52.306;5.634;2023-04-26T14:27:54;1.73;;;1.40;;
60318;SDS011;46163;52.306;5.634;2023-04-26T14:30:19;1.50;;;1.40;;
60318;SDS011;46163;52.306;5.634;2023-04-26T14:32:45;2.88;;;1.45;;
60318;SDS011;46163;52.306;5.634;2023-04-26T14:35:10;1.65;;;1.38;;
60318;SDS011;46163;52.306;5.634;2023-04-26T14:37:36;1.80;;;1.30;;
60318;SDS011;46163;52.306;5.634;2023-04-26T14:40:02;3.05;;;1.48;;
60318;SDS011;46163;52.306;5.634;2023-04-26T14:42:28;1.55;;;1.42;;
60318;SDS011;46163;52.306;5.634;2023-04-26T14:44:56;1.50;;;1.40;;
60318;SDS011;46163;52.306;5.634;2023-04-26T14:47:22;2.13;;;1.23;;
60318;SDS011;46163;52.306;5.634;2023-04-26T14:49:48;3.17;;;1.40;;
60318;SDS011;46163;52.306;5.634;2023-04-26T14:52:13;3.10;;;1.40;;
60318;SDS011;46163;52.306;5.634;2023-04-26T14:54:40;1.40;;;1.30;;
60318;SDS011;46163;52.306;5.634;2023-04-26T14:57:06;1.70;;;1.60;;
60318;SDS011;46163;52.306;5.634;2023-04-26T14:59:32;1.40;;;1.30;;
60318;SDS011;46163;52.306;5.634;2023-04-26T15:01:58;1.30;;;1.20;;
60318;SDS011;46163;52.306;5.634;2023-04-26T15:04:23;1.40;;;1.30;;
60318;SDS011;46163;52.306;5.634;2023-04-26T15:06:51;1.15;;;1.10;;
60318;SDS011;46163;52.306;5.634;2023-04-26T15:09:16;1.55;;;1.30;;